createdAt,value
2019-05-13T00:00:40.553Z,17.44
2019-05-13T00:01:40.485Z,17.40
2019-05-13T00:02:40.413Z,17.14
2019-05-13T00:03:40.351Z,17.19
2019-05-13T00:04:40.282Z,17.25
2019-05-13T00:05:40.207Z,17.25
2019-05-13T00:06:51.326Z,17.22
2019-05-13T00:07:40.071Z,17.25
2019-05-13T00:08:40.000Z,17.30
2019-05-13T00:09:39.930Z,17.34
2019-05-13T00:10:39.861Z,17.40
2019-05-13T00:11:39.792Z,17.44
2019-05-13T00:12:39.722Z,17.44
2019-05-13T00:13:39.661Z,17.43
2019-05-13T00:14:39.579Z,17.46
2019-05-13T00:15:39.513Z,17.37
2019-05-13T00:16:39.444Z,17.28
2019-05-13T00:17:39.377Z,17.19
2019-05-13T00:18:39.305Z,17.15
2019-05-13T00:19:39.233Z,17.21
2019-05-13T00:20:39.167Z,17.19
2019-05-13T00:21:39.096Z,17.15
2019-05-13T00:22:39.028Z,17.23
2019-05-13T00:23:38.957Z,17.12
2019-05-13T00:24:38.887Z,17.22
2019-05-13T00:25:38.825Z,17.15
2019-05-13T00:26:38.747Z,17.16
2019-05-13T00:27:38.680Z,17.14
2019-05-13T00:28:38.613Z,17.16
2019-05-13T00:29:38.542Z,17.25
2019-05-13T00:30:38.471Z,17.19
2019-05-13T00:31:38.409Z,17.16
2019-05-13T00:32:38.335Z,17.22
2019-05-13T00:33:38.258Z,17.21
2019-05-13T00:34:38.194Z,17.19
2019-05-13T00:35:38.132Z,17.19
2019-05-13T00:36:38.054Z,17.21
2019-05-13T00:37:37.979Z,17.21
2019-05-13T00:38:37.910Z,17.19
2019-05-13T00:39:37.847Z,17.21
2019-05-13T00:40:37.775Z,17.22
2019-05-13T00:41:37.707Z,17.26
2019-05-13T00:42:37.634Z,17.25
2019-05-13T00:43:37.586Z,17.30
2019-05-13T00:44:37.512Z,17.31
2019-05-13T00:45:37.429Z,17.26
2019-05-13T00:46:37.357Z,17.22
2019-05-13T00:47:37.285Z,17.07
2019-05-13T00:48:37.217Z,16.98
2019-05-13T00:49:37.149Z,16.79
2019-05-13T00:50:37.079Z,16.61
2019-05-13T00:51:37.005Z,16.60
2019-05-13T00:52:36.941Z,16.68
2019-05-13T00:53:36.867Z,16.67
2019-05-13T00:54:36.804Z,16.76
2019-05-13T00:55:36.732Z,16.73
2019-05-13T00:56:36.664Z,16.71
2019-05-13T00:57:36.591Z,16.75
2019-05-13T00:58:36.524Z,16.71
2019-05-13T00:59:36.456Z,16.76
2019-05-13T01:00:36.389Z,16.81
2019-05-13T01:01:36.316Z,16.85
2019-05-13T01:02:36.248Z,16.70
2019-05-13T01:03:36.176Z,16.75
2019-05-13T01:04:36.107Z,16.82
2019-05-13T01:05:36.033Z,16.88
2019-05-13T01:06:35.964Z,17.00
2019-05-13T01:07:35.898Z,16.96
2019-05-13T01:08:35.827Z,16.96
2019-05-13T01:09:35.759Z,16.86
2019-05-13T01:10:35.712Z,16.76
2019-05-13T01:11:35.622Z,16.81
2019-05-13T01:12:35.548Z,16.83
2019-05-13T01:13:35.479Z,16.75
2019-05-13T01:14:35.408Z,16.71
2019-05-13T01:15:35.336Z,16.67
2019-05-13T01:16:35.272Z,16.50
2019-05-13T01:17:35.198Z,16.63
2019-05-13T01:18:35.134Z,16.49
2019-05-13T01:19:35.059Z,16.61
2019-05-13T01:20:34.988Z,16.64
2019-05-13T01:21:34.917Z,16.70
2019-05-13T01:22:34.850Z,16.68
2019-05-13T01:23:34.778Z,16.71
2019-05-13T01:24:34.710Z,16.81
2019-05-13T01:25:34.635Z,16.83
2019-05-13T01:26:34.567Z,16.66
2019-05-13T01:27:34.502Z,16.76
2019-05-13T01:28:34.659Z,16.71
2019-05-13T01:29:34.642Z,16.70
2019-05-13T01:30:34.838Z,16.75
2019-05-13T01:31:34.472Z,16.78
2019-05-13T01:32:34.339Z,16.67
2019-05-13T01:33:35.122Z,16.64
2019-05-13T01:34:34.128Z,16.61
2019-05-13T01:35:34.399Z,16.73
2019-05-13T01:36:34.237Z,16.64
2019-05-13T01:37:42.285Z,16.73
2019-05-13T01:38:34.052Z,16.70
2019-05-13T01:39:34.881Z,16.70
2019-05-13T01:40:34.760Z,16.64
2019-05-13T01:41:33.545Z,16.71
2019-05-13T01:42:33.759Z,16.71
2019-05-13T01:43:33.592Z,16.70
2019-05-13T01:44:33.723Z,16.76
2019-05-13T01:45:33.953Z,16.73
2019-05-13T01:46:34.680Z,16.79
2019-05-13T01:47:34.531Z,16.68
2019-05-13T01:48:33.369Z,16.67
2019-05-13T01:49:33.695Z,16.75
2019-05-13T01:50:33.819Z,16.73
2019-05-13T01:51:33.483Z,16.73
2019-05-13T01:52:34.368Z,16.75
2019-05-13T01:53:33.571Z,16.68
2019-05-13T01:54:33.915Z,16.70
2019-05-13T01:55:33.964Z,16.60
2019-05-13T01:56:33.994Z,16.64
2019-05-13T01:57:34.256Z,16.49
2019-05-13T01:58:33.970Z,16.50
2019-05-13T01:59:34.522Z,16.53
2019-05-13T02:00:34.936Z,16.64
2019-05-13T02:01:33.719Z,16.70
2019-05-13T02:02:33.649Z,16.68
2019-05-13T02:03:33.801Z,16.64
2019-05-13T02:04:33.565Z,16.75
2019-05-13T02:05:33.903Z,16.70
2019-05-13T02:06:33.614Z,16.76
2019-05-13T02:07:33.533Z,16.79
2019-05-13T02:08:33.738Z,16.73
2019-05-13T02:09:33.671Z,16.70
2019-05-13T02:10:33.321Z,16.71
2019-05-13T02:11:33.996Z,16.64
2019-05-13T02:12:33.880Z,16.43
2019-05-13T02:13:34.064Z,16.57
2019-05-13T02:14:31.216Z,16.50
2019-05-13T02:15:31.144Z,16.64
2019-05-13T02:16:33.602Z,16.73
2019-05-13T02:17:31.003Z,16.75
2019-05-13T02:18:30.950Z,16.68
2019-05-13T02:19:30.862Z,16.68
2019-05-13T02:20:33.409Z,16.63
2019-05-13T02:21:31.530Z,16.71
2019-05-13T02:22:30.655Z,16.68
2019-05-13T02:23:31.021Z,16.73
2019-05-13T02:24:31.079Z,16.71
2019-05-13T02:25:30.460Z,16.64
2019-05-13T02:26:30.376Z,16.64
2019-05-13T02:27:30.317Z,16.67
2019-05-13T02:28:30.241Z,16.57
2019-05-13T02:29:30.166Z,16.45
2019-05-13T02:30:30.097Z,16.33
2019-05-13T02:31:41.368Z,16.33
2019-05-13T02:32:32.881Z,16.30
2019-05-13T02:33:33.546Z,16.14
2019-05-13T02:34:32.170Z,16.20
2019-05-13T02:35:32.537Z,16.23
2019-05-13T02:36:32.652Z,16.39
2019-05-13T02:37:33.869Z,16.34
2019-05-13T02:38:31.822Z,16.45
2019-05-13T02:39:32.241Z,16.34
2019-05-13T02:40:32.461Z,16.33
2019-05-13T02:41:29.328Z,16.31
2019-05-13T02:42:32.046Z,16.28
2019-05-13T02:43:29.186Z,16.41
2019-05-13T02:44:29.116Z,16.38
2019-05-13T02:45:29.052Z,16.28
2019-05-13T02:46:28.979Z,16.38
2019-05-13T02:47:28.910Z,16.30
2019-05-13T02:48:28.840Z,16.38
2019-05-13T02:49:32.113Z,16.35
2019-05-13T02:50:28.699Z,16.30
2019-05-13T02:51:28.629Z,16.30
2019-05-13T02:52:28.558Z,16.34
2019-05-13T02:53:28.504Z,16.17
2019-05-13T02:54:28.419Z,16.23
2019-05-13T02:55:28.363Z,16.07
2019-05-13T02:56:28.283Z,16.09
2019-05-13T02:57:28.207Z,16.05
2019-05-13T02:58:28.136Z,16.09
2019-05-13T02:59:28.067Z,16.12
2019-05-13T03:00:27.998Z,16.20
2019-05-13T03:01:27.957Z,16.23
2019-05-13T03:02:27.858Z,16.14
2019-05-13T03:03:27.788Z,16.17
2019-05-13T03:04:27.738Z,16.07
2019-05-13T03:05:27.653Z,16.05
2019-05-13T03:06:27.579Z,16.07
2019-05-13T03:07:27.510Z,16.12
2019-05-13T03:08:44.717Z,16.01
2019-05-13T03:09:27.367Z,16.00
2019-05-13T03:10:27.308Z,16.00
2019-05-13T03:11:27.230Z,16.07
2019-05-13T03:12:27.155Z,16.09
2019-05-13T03:13:27.091Z,16.09
2019-05-13T03:14:27.019Z,16.21
2019-05-13T03:15:26.951Z,16.12
2019-05-13T03:16:26.879Z,16.15
2019-05-13T03:17:26.808Z,16.20
2019-05-13T03:18:26.739Z,16.15
2019-05-13T03:19:26.677Z,16.20
2019-05-13T03:20:26.629Z,16.12
2019-05-13T03:21:26.541Z,16.20
2019-05-13T03:22:26.459Z,16.23
2019-05-13T03:23:26.393Z,16.09
2019-05-13T03:24:26.322Z,16.12
2019-05-13T03:25:26.246Z,16.04
2019-05-13T03:26:26.177Z,16.00
2019-05-13T03:27:26.104Z,16.00
2019-05-13T03:28:26.037Z,16.11
2019-05-13T03:29:25.969Z,16.08
2019-05-13T03:30:26.425Z,16.01
2019-05-13T03:31:26.791Z,16.02
2019-05-13T03:32:28.907Z,15.97
2019-05-13T03:33:28.434Z,15.94
2019-05-13T03:34:27.286Z,15.96
2019-05-13T03:35:27.566Z,16.02
2019-05-13T03:36:26.518Z,16.01
2019-05-13T03:37:27.075Z,15.97
2019-05-13T03:38:32.865Z,15.96
2019-05-13T03:39:25.263Z,15.82
2019-05-13T03:40:25.197Z,15.89
2019-05-13T03:41:25.158Z,15.84
2019-05-13T03:42:25.060Z,15.93
2019-05-13T03:43:24.985Z,15.93
2019-05-13T03:44:24.914Z,15.76
2019-05-13T03:45:24.854Z,15.92
2019-05-13T03:46:24.770Z,15.87
2019-05-13T03:47:24.823Z,15.94
2019-05-13T03:48:24.634Z,16.12
2019-05-13T03:49:24.574Z,15.97
2019-05-13T03:50:24.494Z,16.07
2019-05-13T03:51:24.439Z,16.01
2019-05-13T03:52:24.350Z,16.00
2019-05-13T03:53:24.281Z,15.74
2019-05-13T03:54:24.212Z,15.65
2019-05-13T03:55:24.141Z,15.54
2019-05-13T03:56:24.268Z,15.60
2019-05-13T03:57:24.003Z,15.65
2019-05-13T03:58:24.227Z,15.54
2019-05-13T03:59:23.857Z,15.51
2019-05-13T04:00:23.891Z,15.54
2019-05-13T04:01:23.719Z,15.62
2019-05-13T04:02:23.652Z,15.71
2019-05-13T04:03:23.579Z,15.75
2019-05-13T04:04:23.770Z,15.71
2019-05-13T04:05:23.785Z,15.71
2019-05-13T04:06:23.897Z,15.71
2019-05-13T04:07:23.919Z,15.78
2019-05-13T04:08:23.263Z,15.54
2019-05-13T04:09:31.139Z,15.62
2019-05-13T04:10:23.465Z,15.62
2019-05-13T04:11:23.017Z,15.60
2019-05-13T04:12:25.798Z,15.62
2019-05-13T04:13:23.456Z,15.64
2019-05-13T04:14:23.428Z,15.54
2019-05-13T04:15:23.744Z,15.49
2019-05-13T04:16:23.647Z,15.41
2019-05-13T04:17:24.307Z,15.35
2019-05-13T04:18:23.366Z,15.51
2019-05-13T04:19:23.408Z,15.41
2019-05-13T04:20:23.360Z,15.39
2019-05-13T04:21:22.926Z,15.29
2019-05-13T04:22:23.035Z,15.32
2019-05-13T04:23:23.325Z,15.41
2019-05-13T04:24:23.140Z,15.35
2019-05-13T04:25:23.335Z,15.35
2019-05-13T04:26:23.695Z,15.35
2019-05-13T04:27:23.327Z,15.38
2019-05-13T04:28:22.334Z,15.59
2019-05-13T04:29:23.424Z,15.60
2019-05-13T04:30:22.588Z,15.57
2019-05-13T04:31:22.769Z,15.64
2019-05-13T04:32:23.000Z,15.53
2019-05-13T04:33:22.888Z,15.60
2019-05-13T04:34:22.926Z,15.51
2019-05-13T04:35:23.428Z,15.56
2019-05-13T04:36:23.401Z,15.44
2019-05-13T04:37:22.350Z,15.53
2019-05-13T04:38:22.628Z,15.57
2019-05-13T04:39:39.725Z,15.64
2019-05-13T04:40:23.287Z,15.60
2019-05-13T04:41:22.926Z,15.49
2019-05-13T04:42:23.140Z,15.38
2019-05-13T04:43:23.550Z,15.39
2019-05-13T04:44:24.026Z,15.50
2019-05-13T04:45:24.053Z,15.41
2019-05-13T04:46:22.828Z,15.39
2019-05-13T04:47:22.930Z,15.36
2019-05-13T04:48:22.917Z,15.39
2019-05-13T04:49:23.434Z,15.35
2019-05-13T04:50:22.495Z,15.31
2019-05-13T04:51:22.668Z,15.32
2019-05-13T04:52:22.318Z,15.21
2019-05-13T04:53:22.663Z,15.32
2019-05-13T04:54:22.597Z,15.36
2019-05-13T04:55:22.809Z,15.34
2019-05-13T04:56:22.382Z,15.23
2019-05-13T04:57:22.399Z,15.16
2019-05-13T04:58:23.187Z,15.20
2019-05-13T04:59:22.415Z,15.14
2019-05-13T05:00:22.560Z,15.11
2019-05-13T05:01:19.592Z,15.16
2019-05-13T05:02:22.397Z,15.06
2019-05-13T05:03:22.974Z,15.13
2019-05-13T05:04:24.437Z,15.09
2019-05-13T05:05:22.239Z,15.11
2019-05-13T05:06:22.447Z,15.07
2019-05-13T05:07:21.990Z,14.98
2019-05-13T05:08:21.665Z,15.03
2019-05-13T05:09:18.911Z,15.10
2019-05-13T05:10:30.440Z,15.17
2019-05-13T05:11:21.981Z,15.21
2019-05-13T05:12:18.710Z,15.21
2019-05-13T05:13:18.634Z,15.20
2019-05-13T05:14:18.566Z,15.23
2019-05-13T05:15:18.501Z,15.10
2019-05-13T05:16:18.416Z,15.17
2019-05-13T05:17:18.347Z,15.17
2019-05-13T05:18:18.284Z,15.13
2019-05-13T05:19:18.210Z,15.16
2019-05-13T05:20:18.161Z,15.09
2019-05-13T05:21:18.067Z,15.10
2019-05-13T05:22:17.999Z,15.10
2019-05-13T05:23:17.923Z,15.17
2019-05-13T05:24:17.855Z,15.20
2019-05-13T05:25:17.780Z,15.17
2019-05-13T05:26:17.718Z,15.17
2019-05-13T05:27:17.644Z,15.31
2019-05-13T05:28:17.570Z,15.39
2019-05-13T05:29:17.500Z,15.38
2019-05-13T05:30:17.428Z,15.49
2019-05-13T05:31:17.358Z,15.49
2019-05-13T05:32:17.291Z,15.39
2019-05-13T05:33:17.215Z,15.29
2019-05-13T05:34:17.144Z,15.31
2019-05-13T05:35:17.101Z,15.16
2019-05-13T05:36:17.004Z,15.23
2019-05-13T05:37:16.939Z,15.35
2019-05-13T05:38:16.865Z,15.41
2019-05-13T05:39:16.792Z,15.27
2019-05-13T05:40:28.113Z,15.19
2019-05-13T05:41:16.650Z,15.14
2019-05-13T05:42:16.578Z,15.14
2019-05-13T05:43:16.512Z,15.27
2019-05-13T05:44:16.441Z,15.14
2019-05-13T05:45:16.363Z,15.28
2019-05-13T05:46:16.298Z,15.36
2019-05-13T05:47:16.236Z,15.29
2019-05-13T05:48:16.159Z,15.50
2019-05-13T05:49:16.086Z,15.44
2019-05-13T05:50:16.017Z,15.54
2019-05-13T05:51:15.947Z,15.43
2019-05-13T05:52:15.875Z,15.49
2019-05-13T05:53:15.804Z,15.54
2019-05-13T05:54:15.733Z,15.56
2019-05-13T05:55:15.668Z,15.65
2019-05-13T05:56:15.595Z,15.67
2019-05-13T05:57:15.522Z,15.75
2019-05-13T05:58:15.452Z,15.76
2019-05-13T05:59:15.384Z,15.97
2019-05-13T06:00:15.334Z,16.00
2019-05-13T06:01:15.247Z,15.97
2019-05-13T06:02:15.176Z,15.97
2019-05-13T06:03:15.106Z,15.97
2019-05-13T06:04:15.035Z,15.93
2019-05-13T06:05:14.967Z,16.04
2019-05-13T06:06:14.896Z,15.97
2019-05-13T06:07:14.865Z,16.09
2019-05-13T06:08:17.651Z,16.23
2019-05-13T06:09:15.019Z,16.01
2019-05-13T06:10:14.615Z,15.94
2019-05-13T06:11:14.547Z,15.96
2019-05-13T06:12:14.476Z,15.96
2019-05-13T06:13:14.440Z,15.89
2019-05-13T06:14:14.339Z,16.01
2019-05-13T06:15:14.268Z,16.12
2019-05-13T06:16:14.199Z,16.30
2019-05-13T06:17:14.133Z,16.43
2019-05-13T06:18:14.063Z,16.33
2019-05-13T06:19:13.995Z,16.28
2019-05-13T06:20:13.922Z,16.41
2019-05-13T06:21:13.853Z,16.34
2019-05-13T06:22:13.784Z,16.39
2019-05-13T06:23:13.719Z,16.46
2019-05-13T06:24:13.644Z,16.63
2019-05-13T06:25:14.787Z,16.30
2019-05-13T06:26:13.504Z,16.46
2019-05-13T06:27:13.452Z,16.43
2019-05-13T06:28:13.371Z,16.42
2019-05-13T06:29:13.301Z,16.45
2019-05-13T06:30:13.233Z,16.49
2019-05-13T06:31:13.171Z,16.43
2019-05-13T06:32:21.504Z,16.56
2019-05-13T06:33:13.028Z,16.63
2019-05-13T06:34:12.969Z,16.71
2019-05-13T06:35:12.892Z,16.85
2019-05-13T06:36:12.819Z,16.93
2019-05-13T06:37:12.759Z,17.08
2019-05-13T06:38:12.680Z,17.19
2019-05-13T06:39:12.618Z,17.23
2019-05-13T06:40:12.551Z,17.25
2019-05-13T06:41:14.794Z,17.18
2019-05-13T06:42:12.414Z,17.26
2019-05-13T06:43:12.342Z,17.31
2019-05-13T06:44:12.337Z,17.26
2019-05-13T06:45:12.554Z,17.15
2019-05-13T06:46:12.373Z,17.26
2019-05-13T06:47:12.080Z,17.28
2019-05-13T06:48:12.013Z,17.23
2019-05-13T06:49:12.333Z,17.16
2019-05-13T06:50:11.903Z,17.12
2019-05-13T06:51:11.800Z,17.08
2019-05-13T06:52:12.086Z,17.08
2019-05-13T06:53:12.761Z,17.18
2019-05-13T06:54:11.593Z,17.19
2019-05-13T06:55:11.738Z,17.14
2019-05-13T06:56:12.090Z,17.11
2019-05-13T06:57:13.351Z,16.96
2019-05-13T06:58:11.571Z,16.97
2019-05-13T06:59:11.998Z,17.14
2019-05-13T07:00:12.200Z,17.19
2019-05-13T07:01:11.633Z,16.97
2019-05-13T07:02:12.454Z,17.12
2019-05-13T07:03:12.709Z,17.16
2019-05-13T07:04:11.627Z,17.21
2019-05-13T07:05:12.035Z,17.31
2019-05-13T07:06:12.353Z,17.36
2019-05-13T07:07:16.182Z,17.38
2019-05-13T07:08:12.023Z,17.12
2019-05-13T07:09:11.991Z,17.14
2019-05-13T07:10:12.753Z,17.28
2019-05-13T07:11:20.402Z,17.37
2019-05-13T07:12:11.407Z,17.36
2019-05-13T07:13:11.374Z,17.46
2019-05-13T07:14:12.654Z,17.49
2019-05-13T07:15:11.565Z,17.44
2019-05-13T07:16:11.950Z,17.34
2019-05-13T07:17:12.141Z,17.51
2019-05-13T07:18:11.780Z,17.56
2019-05-13T07:19:11.735Z,17.66
2019-05-13T07:20:11.592Z,17.48
2019-05-13T07:21:11.857Z,17.58
2019-05-13T07:22:11.613Z,17.59
2019-05-13T07:23:11.945Z,17.70
2019-05-13T07:24:12.383Z,17.72
2019-05-13T07:25:11.408Z,17.66
2019-05-13T07:26:12.058Z,17.72
2019-05-13T07:27:09.358Z,17.74
2019-05-13T07:28:09.290Z,17.87
2019-05-13T07:29:12.462Z,17.82
2019-05-13T07:30:11.321Z,17.86
2019-05-13T07:31:11.411Z,17.89
2019-05-13T07:32:09.017Z,17.96
2019-05-13T07:33:08.957Z,18.00
2019-05-13T07:34:11.411Z,18.02
2019-05-13T07:35:13.136Z,17.97
2019-05-13T07:36:08.755Z,18.20
2019-05-13T07:37:11.185Z,18.15
2019-05-13T07:38:08.618Z,18.18
2019-05-13T07:39:08.547Z,18.14
2019-05-13T07:40:08.477Z,18.21
2019-05-13T07:41:08.411Z,18.21
2019-05-13T07:42:08.359Z,18.21
2019-05-13T07:43:08.275Z,18.15
2019-05-13T07:44:08.212Z,18.03
2019-05-13T07:45:08.142Z,18.00
2019-05-13T07:46:08.079Z,18.15
2019-05-13T07:47:08.009Z,18.27
2019-05-13T07:48:20.597Z,18.26
2019-05-13T07:49:07.872Z,18.44
2019-05-13T07:50:07.804Z,18.36
2019-05-13T07:51:07.737Z,18.23
2019-05-13T07:52:07.674Z,18.32
2019-05-13T07:53:07.609Z,18.44
2019-05-13T07:54:07.538Z,18.45
2019-05-13T07:55:07.467Z,18.51
2019-05-13T07:56:07.403Z,18.62
2019-05-13T07:57:07.333Z,18.55
2019-05-13T07:58:07.289Z,18.57
2019-05-13T07:59:07.202Z,18.54
2019-05-13T08:00:07.137Z,18.54
2019-05-13T08:01:07.071Z,18.60
2019-05-13T08:02:07.041Z,18.63
2019-05-13T08:03:06.935Z,18.57
2019-05-13T08:04:19.209Z,18.65
2019-05-13T08:05:06.803Z,18.76
2019-05-13T08:06:06.731Z,18.76
2019-05-13T08:07:06.667Z,18.69
2019-05-13T08:08:06.599Z,18.73
2019-05-13T08:09:06.530Z,18.82
2019-05-13T08:10:06.462Z,19.00
2019-05-13T08:11:06.398Z,19.06
2019-05-13T08:12:10.661Z,19.06
2019-05-13T08:13:06.265Z,18.73
2019-05-13T08:14:06.197Z,18.54
2019-05-13T08:15:06.133Z,18.60
2019-05-13T08:16:06.065Z,18.57
2019-05-13T08:17:05.997Z,18.60
2019-05-13T08:18:05.934Z,18.67
2019-05-13T08:19:05.864Z,18.84
2019-05-13T08:20:05.800Z,18.94
2019-05-13T08:21:05.733Z,19.04
2019-05-13T08:22:05.669Z,19.10
2019-05-13T08:23:05.596Z,19.19
2019-05-13T08:24:05.535Z,19.29
2019-05-13T08:25:05.464Z,19.23
2019-05-13T08:26:05.402Z,19.40
2019-05-13T08:27:05.331Z,19.40
2019-05-13T08:28:05.266Z,19.36
2019-05-13T08:29:06.102Z,19.33
2019-05-13T08:30:05.126Z,19.51
2019-05-13T08:31:05.060Z,19.50
2019-05-13T08:32:04.998Z,19.61
2019-05-13T08:33:04.929Z,19.63
2019-05-13T08:34:04.863Z,19.65
2019-05-13T08:35:08.978Z,19.65
2019-05-13T08:36:04.729Z,19.76
2019-05-13T08:37:04.665Z,19.65
2019-05-13T08:38:04.606Z,19.68
2019-05-13T08:39:04.531Z,19.66
2019-05-13T08:40:04.463Z,19.54
2019-05-13T08:41:04.405Z,19.66
2019-05-13T08:42:14.968Z,19.66
2019-05-13T08:43:06.702Z,19.61
2019-05-13T08:44:04.211Z,19.58
2019-05-13T08:45:04.131Z,19.65
2019-05-13T08:46:04.067Z,19.58
2019-05-13T08:47:03.997Z,19.61
2019-05-13T08:48:03.938Z,19.76
2019-05-13T08:49:04.061Z,19.84
2019-05-13T08:50:04.580Z,19.91
2019-05-13T08:51:03.733Z,20.02
2019-05-13T08:52:03.669Z,19.99
2019-05-13T08:53:03.615Z,19.83
2019-05-13T08:54:03.540Z,19.92
2019-05-13T08:55:03.472Z,20.05
2019-05-13T08:56:03.411Z,20.06
2019-05-13T08:57:03.480Z,20.11
2019-05-13T08:58:03.290Z,19.96
2019-05-13T08:59:03.209Z,19.99
2019-05-13T09:00:05.401Z,19.88
2019-05-13T09:01:03.085Z,19.94
2019-05-13T09:02:03.562Z,19.88
2019-05-13T09:03:05.994Z,19.76
2019-05-13T09:04:02.922Z,19.77
2019-05-13T09:05:02.809Z,19.73
2019-05-13T09:06:03.127Z,19.81
2019-05-13T09:07:02.691Z,19.81
2019-05-13T09:08:02.611Z,19.96
2019-05-13T09:09:02.629Z,20.01
2019-05-13T09:10:02.479Z,20.17
2019-05-13T09:11:02.816Z,20.11
2019-05-13T09:12:02.826Z,20.24
2019-05-13T09:13:02.281Z,20.35
2019-05-13T09:14:02.512Z,20.48
2019-05-13T09:15:03.354Z,20.47
2019-05-13T09:16:02.557Z,20.47
2019-05-13T09:17:02.372Z,20.38
2019-05-13T09:18:02.450Z,20.18
2019-05-13T09:19:03.877Z,20.08
2019-05-13T09:20:02.838Z,19.94
2019-05-13T09:21:02.496Z,20.05
2019-05-13T09:22:03.022Z,20.13
2019-05-13T09:23:02.157Z,20.18
2019-05-13T09:24:02.341Z,20.11
2019-05-13T09:25:02.210Z,20.14
2019-05-13T09:26:02.644Z,20.14
2019-05-13T09:27:02.100Z,20.14
2019-05-13T09:28:02.580Z,20.35
2019-05-13T09:29:01.562Z,20.28
2019-05-13T09:30:02.638Z,20.39
2019-05-13T09:31:02.072Z,20.52
2019-05-13T09:32:03.888Z,20.57
2019-05-13T09:33:01.999Z,20.66
2019-05-13T09:34:01.559Z,20.67
2019-05-13T09:35:02.962Z,20.69
2019-05-13T09:36:02.149Z,20.82
2019-05-13T09:37:02.797Z,20.80
2019-05-13T09:38:03.209Z,20.95
2019-05-13T09:39:02.068Z,20.80
2019-05-13T09:40:02.441Z,20.92
2019-05-13T09:41:01.884Z,20.88
2019-05-13T09:42:02.711Z,20.95
2019-05-13T09:43:02.418Z,21.07
2019-05-13T09:44:02.125Z,20.98
2019-05-13T09:45:02.170Z,21.16
2019-05-13T09:46:01.706Z,21.07
2019-05-13T09:47:02.581Z,21.09
2019-05-13T09:48:01.632Z,21.10
2019-05-13T09:49:14.823Z,21.22
2019-05-13T09:49:59.848Z,21.24
2019-05-13T09:51:02.162Z,21.22
2019-05-13T09:52:01.657Z,21.04
2019-05-13T09:53:02.537Z,21.22
2019-05-13T09:54:01.327Z,21.22
2019-05-13T09:54:59.517Z,21.19
2019-05-13T09:55:59.465Z,21.22
2019-05-13T09:57:01.671Z,21.25
2019-05-13T09:57:59.321Z,21.13
2019-05-13T09:59:01.545Z,21.12
2019-05-13T10:00:01.425Z,21.16
2019-05-13T10:00:59.125Z,21.22
2019-05-13T10:01:59.066Z,21.31
2019-05-13T10:02:58.992Z,21.17
2019-05-13T10:03:58.927Z,21.24
2019-05-13T10:04:58.862Z,21.24
2019-05-13T10:05:58.793Z,21.28
2019-05-13T10:07:01.551Z,21.27
2019-05-13T10:07:58.664Z,21.24
2019-05-13T10:08:58.600Z,21.28
2019-05-13T10:09:58.537Z,21.27
2019-05-13T10:10:58.469Z,21.34
2019-05-13T10:11:58.409Z,21.31
2019-05-13T10:13:09.076Z,21.40
2019-05-13T10:13:58.269Z,21.31
2019-05-13T10:14:58.207Z,21.43
2019-05-13T10:15:58.143Z,21.35
2019-05-13T10:16:58.082Z,21.43
2019-05-13T10:17:58.010Z,21.52
2019-05-13T10:18:57.948Z,21.38
2019-05-13T10:19:57.875Z,21.40
2019-05-13T10:20:58.891Z,21.52
2019-05-13T10:21:57.751Z,21.58
2019-05-13T10:22:57.683Z,21.54
2019-05-13T10:23:58.749Z,21.37
2019-05-13T10:24:57.552Z,21.37
2019-05-13T10:25:57.483Z,21.40
2019-05-13T10:26:57.426Z,21.49
2019-05-13T10:27:57.359Z,21.49
2019-05-13T10:28:57.289Z,21.40
2019-05-13T10:29:57.230Z,21.47
2019-05-13T10:30:57.164Z,21.53
2019-05-13T10:31:57.091Z,21.71
2019-05-13T10:32:59.481Z,21.62
2019-05-13T10:33:56.963Z,21.65
2019-05-13T10:34:56.897Z,21.75
2019-05-13T10:35:56.832Z,21.65
2019-05-13T10:36:56.764Z,21.83
2019-05-13T10:37:56.700Z,21.82
2019-05-13T10:38:56.630Z,21.90
2019-05-13T10:39:56.569Z,21.92
2019-05-13T10:40:56.497Z,22.03
2019-05-13T10:41:56.471Z,22.02
2019-05-13T10:42:56.372Z,22.02
2019-05-13T10:43:56.307Z,22.07
2019-05-13T10:44:56.239Z,22.00
2019-05-13T10:45:56.169Z,22.03
2019-05-13T10:46:56.111Z,21.99
2019-05-13T10:47:56.052Z,21.96
2019-05-13T10:48:55.979Z,21.94
2019-05-13T10:49:55.911Z,21.99
2019-05-13T10:50:55.843Z,22.03
2019-05-13T10:51:55.789Z,21.94
2019-05-13T10:52:55.716Z,22.00
2019-05-13T10:53:59.466Z,22.03
2019-05-13T10:54:55.588Z,21.98
2019-05-13T10:55:55.519Z,22.06
2019-05-13T10:56:59.500Z,22.07
2019-05-13T10:57:55.390Z,22.05
2019-05-13T10:58:55.324Z,22.02
2019-05-13T10:59:59.548Z,22.07
2019-05-13T11:00:55.191Z,22.14
2019-05-13T11:01:55.128Z,22.17
2019-05-13T11:02:55.063Z,22.28
2019-05-13T11:03:55.040Z,22.36
2019-05-13T11:04:54.934Z,22.42
2019-05-13T11:05:54.872Z,22.47
2019-05-13T11:06:54.802Z,22.35
2019-05-13T11:07:54.734Z,22.39
2019-05-13T11:08:54.669Z,22.40
2019-05-13T11:09:54.601Z,22.37
2019-05-13T11:10:54.539Z,22.45
2019-05-13T11:11:54.515Z,22.37
2019-05-13T11:12:54.408Z,22.37
2019-05-13T11:13:59.160Z,22.43
2019-05-13T11:14:55.485Z,22.47
2019-05-13T11:15:58.086Z,22.46
2019-05-13T11:16:54.146Z,22.40
2019-05-13T11:17:54.094Z,22.39
2019-05-13T11:18:54.022Z,22.39
2019-05-13T11:19:53.953Z,22.35
2019-05-13T11:20:53.887Z,22.43
2019-05-13T11:21:53.823Z,22.42
2019-05-13T11:22:53.765Z,22.45
2019-05-13T11:23:53.692Z,22.36
2019-05-13T11:24:53.632Z,22.42
2019-05-13T11:25:53.566Z,22.46
2019-05-13T11:26:53.595Z,22.49
2019-05-13T11:27:58.177Z,22.55
2019-05-13T11:28:53.373Z,22.57
2019-05-13T11:29:53.302Z,22.60
2019-05-13T11:30:53.244Z,22.68
2019-05-13T11:31:53.167Z,22.58
2019-05-13T11:32:53.113Z,22.67
2019-05-13T11:33:53.043Z,22.70
2019-05-13T11:34:53.316Z,22.70
2019-05-13T11:35:52.912Z,22.67
2019-05-13T11:36:53.495Z,22.67
2019-05-13T11:37:52.780Z,22.70
2019-05-13T11:38:53.378Z,22.72
2019-05-13T11:39:52.651Z,22.70
2019-05-13T11:40:52.722Z,22.68
2019-05-13T11:41:52.517Z,22.79
2019-05-13T11:42:52.748Z,22.79
2019-05-13T11:44:09.191Z,22.73
2019-05-13T11:44:52.994Z,22.77
2019-05-13T11:45:52.259Z,22.80
2019-05-13T11:46:53.203Z,22.68
2019-05-13T11:47:52.364Z,22.68
2019-05-13T11:48:52.550Z,22.73
2019-05-13T11:49:52.497Z,22.64
2019-05-13T11:50:54.108Z,22.79
2019-05-13T11:51:52.135Z,22.77
2019-05-13T11:52:52.582Z,22.83
2019-05-13T11:53:52.523Z,22.86
2019-05-13T11:54:53.772Z,22.91
2019-05-13T11:55:52.423Z,22.92
2019-05-13T11:57:01.176Z,22.92
2019-05-13T11:57:53.127Z,23.00
2019-05-13T11:58:53.426Z,23.01
2019-05-13T11:59:52.700Z,22.98
2019-05-13T12:00:53.063Z,23.02
2019-05-13T12:01:53.864Z,23.07
2019-05-13T12:02:54.615Z,23.04
2019-05-13T12:03:53.133Z,22.95
2019-05-13T12:04:53.549Z,23.02
2019-05-13T12:05:53.716Z,23.00
2019-05-13T12:06:54.406Z,22.91
2019-05-13T12:07:53.570Z,22.97
2019-05-13T12:09:51.817Z,22.98
2019-05-13T12:10:51.900Z,23.09
2019-05-13T12:11:50.574Z,23.02
2019-05-13T12:12:50.523Z,23.05
2019-05-13T12:13:52.893Z,23.19
2019-05-13T12:15:21.001Z,23.22
2019-05-13T12:15:53.981Z,23.16
2019-05-13T12:16:50.243Z,23.19
2019-05-13T12:17:52.364Z,23.25
2019-05-13T12:18:52.495Z,23.33
2019-05-13T12:19:50.051Z,23.35
2019-05-13T12:20:53.580Z,23.32
2019-05-13T12:21:53.655Z,23.28
2019-05-13T12:22:51.499Z,23.28
2019-05-13T12:23:52.455Z,23.36
2019-05-13T12:24:51.654Z,23.36
2019-05-13T12:25:52.578Z,23.39
2019-05-13T12:26:52.855Z,23.35
2019-05-13T12:27:51.382Z,23.35
2019-05-13T12:28:53.201Z,23.31
2019-05-13T12:29:52.775Z,23.38
2019-05-13T12:30:52.747Z,23.27
2019-05-13T12:31:52.398Z,23.35
2019-05-13T12:32:51.356Z,23.40
2019-05-13T12:33:51.990Z,23.40
2019-05-13T12:34:49.073Z,23.40
2019-05-13T12:35:52.557Z,23.40
2019-05-13T12:36:48.940Z,23.46
2019-05-13T12:37:48.873Z,23.51
2019-05-13T12:38:48.811Z,23.51
2019-05-13T12:39:48.750Z,23.54
2019-05-13T12:40:52.465Z,23.55
2019-05-13T12:41:48.610Z,23.54
2019-05-13T12:42:48.548Z,23.54
2019-05-13T12:43:48.484Z,23.54
2019-05-13T12:45:04.090Z,23.50
2019-05-13T12:45:48.354Z,23.48
2019-05-13T12:46:50.331Z,23.53
2019-05-13T12:47:48.231Z,23.53
2019-05-13T12:48:48.159Z,23.57
2019-05-13T12:49:48.096Z,23.54
2019-05-13T12:50:48.031Z,23.58
2019-05-13T12:51:47.959Z,23.54
2019-05-13T12:52:47.899Z,23.60